Eva Schulte — 9V8141 — position and weather

sailwx.info

Track history (hours):
 
Tides and Currents Weather Stations Pressure Air Temp Water Temp Dewpoint Dewpoint Depression Visibility Wind Speed Wind Dir Waves Ship Positions

Eva Schulte

Last reported at 2018-Feb-23 00:30 UTC. Time now 2018-Feb-23 00:56 UTC.
Position N 55°12' E 011°15'.

Length 145 m; draft 8.8 m.

Type: Tanker. MMSI: 564739000.

Date/timePositionNaut miles runAvg speedWind from/ knotsBaromVisibWave heightAir tempDewpointWater temp
2018-Feb-23 00:30N 55°12' E 011°15'0 0.0
2018-Feb-23 00:00N 55°12' E 011°15'0 0.0
2018-Feb-22 23:30N 55°12' E 011°15'0 0.0
2018-Feb-22 23:00N 55°12' E 011°15'0 0.0
2018-Feb-22 22:30N 55°12' E 011°15'0 0.0
2018-Feb-22 22:00N 55°12' E 011°15'0 0.0
2018-Feb-22 21:30N 55°12' E 011°15'0 0.0
2018-Feb-22 21:00N 55°12' E 011°15'0 0.0
2018-Feb-22 20:30N 55°12' E 011°15'0 0.0
2018-Feb-22 20:00N 55°12' E 011°15'0 0.0
2018-Feb-22 19:30N 55°12' E 011°15'0 0.0
2018-Feb-22 19:00N 55°12' E 011°15'0 0.0
2018-Feb-22 18:30N 55°12' E 011°15'0 0.0
2018-Feb-22 18:00N 55°12' E 011°15'0 0.0
2018-Feb-22 17:30N 55°12' E 011°15'0 0.0
2018-Feb-22 17:00N 55°12' E 011°15'0 0.0
2018-Feb-22 16:30N 55°12' E 011°15'0 0.0
2018-Feb-22 16:00N 55°12' E 011°15'0 0.0
2018-Feb-22 15:30N 55°12' E 011°15'0 0.0
2018-Feb-22 15:00N 55°12' E 011°15'0 0.2
2018-Feb-22 14:30N 55°12' E 011°15'1 1.5
2018-Feb-22 14:00N 55°13' E 011°14'4 7.2
2018-Feb-22 13:29N 55°16' E 011°12'4 5.2
2018-Feb-22 12:42N 55°15' E 011°05'2 9.6
2018-Feb-22 12:30N 55°14' E 011°06'610.4
2018-Feb-22 11:55N 55°08' E 011°03'511.1
2018-Feb-22 11:30N 55°03' E 011°02'510.0
2018-Feb-22 11:00N 54°58' E 010°60'510.0
2018-Feb-22 10:30N 54°55' E 010°54'510.9
2018-Feb-22 10:00N 54°49' E 010°52'611.9
2018-Feb-22 09:30N 54°43' E 010°53'612.1
2018-Feb-22 09:00N 54°39' E 011°01'713.1
2018-Feb-22 08:30N 54°37' E 011°11'713.1
2018-Feb-22 08:00N 54°34' E 011°21'612.6
2018-Feb-22 07:30N 54°31' E 011°31'712.4
2018-Feb-22 06:58N 54°29' E 011°42'612.4
2018-Feb-22 06:30N 54°27' E 011°51'612.6
2018-Feb-22 06:00N 54°27' E 012°02'  
2018-Feb-18 09:16N 55°08' E 013°06'310.2
2018-Feb-18 08:57N 55°10' E 013°02'510.0
2018-Feb-18 08:30N 55°13' E 012°56'5 9.7
2018-Feb-18 08:00N 55°16' E 012°48'5 9.8
2018-Feb-18 07:30N 55°17' E 012°41'3 6.9
2018-Feb-18 07:00N 55°20' E 012°37'5 9.1
2018-Feb-18 06:30N 55°24' E 012°39'4 8.8
2018-Feb-18 06:00N 55°29' E 012°41'4 8.9
2018-Feb-18 05:30N 55°33' E 012°42'4 9.0
2018-Feb-18 05:00N 55°38' E 012°42'5 9.7
2018-Feb-18 04:30N 55°42' E 012°41'510.1
2018-Feb-18 04:00N 55°48' E 012°42'510.5
2018-Feb-18 03:30N 55°53' E 012°40'510.1
2018-Feb-18 03:00N 55°58' E 012°38'510.2
2018-Feb-18 02:30N 56°03' E 012°38'5 9.5
2018-Feb-18 02:00N 56°06' E 012°33'5 9.7
2018-Feb-18 01:30N 56°09' E 012°26'5 9.6
2018-Feb-18 01:00N 56°12' E 012°19'5 9.8
2018-Feb-18 00:29N 56°15' E 012°11'46 9.1
2018-Feb-17 19:28N 56°58' E 011°44'4 9.1
2018-Feb-17 19:00N 57°02' E 011°42'4 8.8
2018-Feb-17 18:30N 57°06' E 011°39'5 9.5
2018-Feb-17 18:00N 57°11' E 011°36'5 9.5
2018-Feb-17 17:30N 57°15' E 011°33'5 9.1
2018-Feb-17 17:00N 57°19' E 011°30'4 8.6
2018-Feb-17 16:30N 57°23' E 011°27'4 8.6
2018-Feb-17 16:00N 57°27' E 011°24'4 8.5
2018-Feb-17 15:30N 57°31' E 011°19'4 8.3
2018-Feb-17 15:00N 57°33' E 011°13'4 8.1
2018-Feb-17 14:30N 57°36' E 011°07'4 8.4
2018-Feb-17 14:00N 57°39' E 011°02'5 9.4
2018-Feb-17 13:30N 57°42' E 010°55'5 9.6
2018-Feb-17 13:00N 57°45' E 010°48'5 9.5
2018-Feb-17 12:30N 57°47' E 010°40'510.8
2018-Feb-17 12:00N 57°46' E 010°30'30510.0
2018-Feb-16 05:36N 53°55' E 004°35'110.6
2018-Feb-16 05:29N 53°54' E 004°34'510.7
2018-Feb-16 05:00N 53°50' E 004°28'510.7
2018-Feb-16 04:30N 53°46' E 004°21'510.8
2018-Feb-16 03:59N 53°43' E 004°14'95 8.6
2018-Feb-15 16:54N 52°15' E 003°14'5 9.9
2018-Feb-15 16:22N 52°12' E 003°21'4 9.8
2018-Feb-15 16:00N 52°11' E 003°27'5 9.8
2018-Feb-15 15:30N 52°08' E 003°34'5 9.9
2018-Feb-15 14:59N 52°05' E 003°40'510.4
2018-Feb-15 14:30N 52°00' E 003°44'4 7.5
2018-Feb-15 14:00N 51°57' E 003°47'0 0.2
2018-Feb-15 13:27N 51°57' E 003°47'0 0.0
2018-Feb-15 12:57N 51°57' E 003°47'0 0.1
2018-Feb-15 12:30N 51°57' E 003°47'0 0.0
2018-Feb-15 11:57N 51°57' E 003°47'0 0.0
2018-Feb-15 11:24N 51°57' E 003°47'0 0.0
2018-Feb-15 10:57N 51°57' E 003°47'0 0.0
2018-Feb-15 10:27N 51°57' E 003°47'0 0.1
2018-Feb-15 09:57N 51°57' E 003°47'0 0.2
2018-Feb-15 09:27N 51°57' E 003°46'0 0.0
2018-Feb-15 08:54N 51°57' E 003°46'0 0.0
2018-Feb-15 08:24N 51°57' E 003°46'0 0.0
2018-Feb-15 07:54N 51°57' E 003°46'0 0.1
2018-Feb-15 07:21N 51°57' E 003°47'0 0.1
2018-Feb-15 07:00N 51°57' E 003°47'0 0.0
2018-Feb-15 06:21N 51°57' E 003°47'0 0.0
2018-Feb-15 05:51N 51°57' E 003°47'0 0.0
2018-Feb-15 05:27N 51°57' E 003°47'0 0.0
2018-Feb-15 04:57N 51°57' E 003°47'0 0.0
2018-Feb-15 04:30N 51°57' E 003°47'0 0.0
2018-Feb-15 04:00N 51°57' E 003°47'0 0.0
2018-Feb-15 03:30N 51°57' E 003°47'0 0.0
2018-Feb-15 03:00N 51°57' E 003°47'0 0.0
2018-Feb-15 02:30N 51°57' E 003°47'0 0.0
2018-Feb-15 02:00N 51°57' E 003°47'0 0.0
2018-Feb-15 01:30N 51°57' E 003°47'0 0.0
2018-Feb-15 01:00N 51°57' E 003°47'0 0.0
2018-Feb-15 00:24N 51°57' E 003°47'0 0.1
2018-Feb-14 23:57N 51°57' E 003°47'0 0.0
2018-Feb-14 23:30N 51°57' E 003°47'0 0.0
2018-Feb-14 22:51N 51°57' E 003°46'0 0.0
2018-Feb-14 22:30N 51°57' E 003°46'0 0.0
2018-Feb-14 21:51N 51°57' E 003°46'0 0.0
2018-Feb-14 21:24N 51°57' E 003°46'0 0.1
2018-Feb-14 20:57N 51°57' E 003°46'0 0.0
2018-Feb-14 20:24N 51°57' E 003°46'0 0.0
2018-Feb-14 20:00N 51°57' E 003°46'0 0.0
2018-Feb-14 19:30N 51°57' E 003°46'0 0.0
2018-Feb-14 19:00N 51°57' E 003°46'0 0.0
2018-Feb-14 17:48N 51°57' E 003°46'0 0.0
2018-Feb-14 17:27N 51°57' E 003°46'0 0.0
2018-Feb-14 16:54N 51°57' E 003°46'0 0.0
2018-Feb-14 16:30N 51°57' E 003°46'0 0.0
2018-Feb-14 15:57N 51°57' E 003°47'0 0.0
2018-Feb-14 15:30N 51°57' E 003°47'0 0.0
2018-Feb-14 14:57N 51°57' E 003°47'0 0.0
2018-Feb-14 14:15N 51°57' E 003°47'0 0.0
2018-Feb-14 13:54N 51°57' E 003°47'0 0.0
2018-Feb-14 13:21N 51°57' E 003°47'0 0.0
2018-Feb-14 12:57N 51°57' E 003°47'0 0.0
2018-Feb-14 12:21N 51°57' E 003°47'0 0.0
2018-Feb-14 12:00N 51°57' E 003°47'0 0.1
2018-Feb-14 11:30N 51°57' E 003°47'0 0.0
2018-Feb-14 10:45N 51°57' E 003°46'0 0.0
2018-Feb-14 10:18N 51°57' E 003°46'0 0.1
2018-Feb-14 09:51N 51°57' E 003°46'0 0.1
2018-Feb-14 09:30N 51°57' E 003°46'0 0.1
2018-Feb-14 09:00N 51°57' E 003°46'0 0.0
2018-Feb-14 08:21N 51°57' E 003°46'0 0.0
2018-Feb-14 07:57N 51°57' E 003°46'0 0.0
2018-Feb-14 07:30N 51°57' E 003°46'0 0.1
2018-Feb-14 06:48N 51°57' E 003°46'0 0.1
2018-Feb-14 06:30N 51°57' E 003°46'0 0.1
2018-Feb-14 06:00N 51°57' E 003°46'0 0.0
2018-Feb-14 05:24N 51°57' E 003°46'0 0.0
2018-Feb-14 04:57N 51°57' E 003°46'0 0.0
2018-Feb-14 04:30N 51°57' E 003°46'0 0.0
2018-Feb-14 03:54N 51°57' E 003°46'0 0.0
2018-Feb-14 03:24N 51°57' E 003°47'0 0.0
2018-Feb-14 03:00N 51°57' E 003°47'0 0.0
2018-Feb-14 02:30N 51°57' E 003°47'0 0.0
2018-Feb-14 01:57N 51°57' E 003°47'0 0.0
2018-Feb-14 01:18N 51°57' E 003°47'0 0.0
2018-Feb-14 00:45N 51°57' E 003°47'0 0.1
2018-Feb-14 00:30N 51°57' E 003°47'0 0.0
2018-Feb-13 23:57N 51°57' E 003°47'0 0.1
2018-Feb-13 23:21N 51°57' E 003°46'0 0.0
2018-Feb-13 22:06N 51°57' E 003°46'0 0.2
2018-Feb-13 21:51N 51°57' E 003°46'0 0.1
2018-Feb-13 21:12N 51°57' E 003°46'0 0.0
2018-Feb-13 20:57N 51°57' E 003°46'0 0.1
2018-Feb-13 20:21N 51°57' E 003°46'0 0.0
2018-Feb-13 19:57N 51°57' E 003°46'0 0.0
2018-Feb-13 19:30N 51°57' E 003°46'0 0.1
2018-Feb-13 18:57N 51°57' E 003°46'0 0.1
2018-Feb-13 18:30N 51°57' E 003°46'0 0.1
2018-Feb-13 17:15N 51°57' E 003°46'0 0.1
2018-Feb-13 17:00N 51°57' E 003°46'0 0.0
2018-Feb-13 16:30N 51°57' E 003°47'0 0.0
2018-Feb-13 15:57N 51°57' E 003°47'0 0.0
2018-Feb-13 15:27N 51°57' E 003°47'0 0.0
2018-Feb-13 14:57N 51°57' E 003°47'0 0.0
2018-Feb-13 14:30N 51°57' E 003°47'0 0.0
2018-Feb-13 13:51N 51°57' E 003°47'0 0.0
2018-Feb-13 13:30N 51°57' E 003°47'0 0.0
2018-Feb-13 12:54N 51°57' E 003°47'0 0.0
2018-Feb-13 12:15N 51°57' E 003°47'0 0.0
2018-Feb-13 11:51N 51°57' E 003°47'0 0.0
2018-Feb-13 11:21N 51°57' E 003°47'0 0.0
2018-Feb-13 10:57N 51°57' E 003°47'0 0.0
2018-Feb-13 10:24N 51°57' E 003°47'0 0.1
2018-Feb-13 09:57N 51°57' E 003°47'0 0.0
2018-Feb-13 09:18N 51°57' E 003°47'0 0.1
2018-Feb-13 08:54N 51°57' E 003°46'0 0.0
2018-Feb-13 08:24N 51°57' E 003°46'0 0.1
2018-Feb-13 07:57N 51°57' E 003°46'0 0.1
2018-Feb-13 07:24N 51°57' E 003°46'0 0.0
2018-Feb-13 06:45N 51°57' E 003°46'0 0.1
2018-Feb-13 06:30N 51°57' E 003°46'0 0.1
2018-Feb-13 06:00N 51°57' E 003°47'0 0.0
2018-Feb-13 05:30N 51°57' E 003°47'0 0.0
2018-Feb-13 05:00N 51°57' E 003°47'0 0.0
2018-Feb-13 04:24N 51°57' E 003°47'0 0.0
2018-Feb-13 04:00N 51°57' E 003°47'0 0.0
2018-Feb-13 03:30N 51°57' E 003°47'0 0.0
2018-Feb-13 02:57N 51°57' E 003°47'0 0.1
2018-Feb-13 02:27N 51°57' E 003°47'0 0.1
2018-Feb-13 02:00N 51°57' E 003°47'0 0.0
2018-Feb-13 01:30N 51°57' E 003°47'0 0.0
2018-Feb-13 00:54N 51°57' E 003°47'  
Track history (hours):
 
Tides and Currents Weather Stations Pressure Air Temp Water Temp Dewpoint Dewpoint Depression Visibility Wind Speed Wind Dir Waves Ship Positions

Eva Schulte

Last reported at 2018-Feb-23 00:30 UTC. Time now 2018-Feb-23 00:56 UTC.
Position N 55°12' E 011°15'.

Length 145 m; draft 8.8 m.

Type: Tanker. MMSI: 564739000.

Date/timePositionNaut miles runAvg speedWind from/ knotsBaromVisibWave heightAir tempDewpointWater temp
2018-Feb-23 00:30N 55°12' E 011°15'0 0.0
2018-Feb-23 00:00N 55°12' E 011°15'0 0.0
2018-Feb-22 23:30N 55°12' E 011°15'0 0.0
2018-Feb-22 23:00N 55°12' E 011°15'0 0.0
2018-Feb-22 22:30N 55°12' E 011°15'0 0.0
2018-Feb-22 22:00N 55°12' E 011°15'0 0.0
2018-Feb-22 21:30N 55°12' E 011°15'0 0.0
2018-Feb-22 21:00N 55°12' E 011°15'0 0.0
2018-Feb-22 20:30N 55°12' E 011°15'0 0.0
2018-Feb-22 20:00N 55°12' E 011°15'0 0.0
2018-Feb-22 19:30N 55°12' E 011°15'0 0.0
2018-Feb-22 19:00N 55°12' E 011°15'0 0.0
2018-Feb-22 18:30N 55°12' E 011°15'0 0.0
2018-Feb-22 18:00N 55°12' E 011°15'0 0.0
2018-Feb-22 17:30N 55°12' E 011°15'0 0.0
2018-Feb-22 17:00N 55°12' E 011°15'0 0.0
2018-Feb-22 16:30N 55°12' E 011°15'0 0.0
2018-Feb-22 16:00N 55°12' E 011°15'0 0.0
2018-Feb-22 15:30N 55°12' E 011°15'0 0.0
2018-Feb-22 15:00N 55°12' E 011°15'0 0.2
2018-Feb-22 14:30N 55°12' E 011°15'1 1.5
2018-Feb-22 14:00N 55°13' E 011°14'4 7.2
2018-Feb-22 13:29N 55°16' E 011°12'4 5.2
2018-Feb-22 12:42N 55°15' E 011°05'2 9.6
2018-Feb-22 12:30N 55°14' E 011°06'610.4
2018-Feb-22 11:55N 55°08' E 011°03'511.1
2018-Feb-22 11:30N 55°03' E 011°02'510.0
2018-Feb-22 11:00N 54°58' E 010°60'510.0
2018-Feb-22 10:30N 54°55' E 010°54'510.9
2018-Feb-22 10:00N 54°49' E 010°52'611.9
2018-Feb-22 09:30N 54°43' E 010°53'612.1
2018-Feb-22 09:00N 54°39' E 011°01'713.1
2018-Feb-22 08:30N 54°37' E 011°11'713.1
2018-Feb-22 08:00N 54°34' E 011°21'612.6
2018-Feb-22 07:30N 54°31' E 011°31'712.4
2018-Feb-22 06:58N 54°29' E 011°42'612.4
2018-Feb-22 06:30N 54°27' E 011°51'612.6
2018-Feb-22 06:00N 54°27' E 012°02'  
2018-Feb-18 09:16N 55°08' E 013°06'310.2
2018-Feb-18 08:57N 55°10' E 013°02'510.0
2018-Feb-18 08:30N 55°13' E 012°56'5 9.7
2018-Feb-18 08:00N 55°16' E 012°48'5 9.8
2018-Feb-18 07:30N 55°17' E 012°41'3 6.9
2018-Feb-18 07:00N 55°20' E 012°37'5 9.1
2018-Feb-18 06:30N 55°24' E 012°39'4 8.8
2018-Feb-18 06:00N 55°29' E 012°41'4 8.9
2018-Feb-18 05:30N 55°33' E 012°42'4 9.0
2018-Feb-18 05:00N 55°38' E 012°42'5 9.7
2018-Feb-18 04:30N 55°42' E 012°41'510.1
2018-Feb-18 04:00N 55°48' E 012°42'510.5
2018-Feb-18 03:30N 55°53' E 012°40'510.1
2018-Feb-18 03:00N 55°58' E 012°38'510.2
2018-Feb-18 02:30N 56°03' E 012°38'5 9.5
2018-Feb-18 02:00N 56°06' E 012°33'5 9.7
2018-Feb-18 01:30N 56°09' E 012°26'5 9.6
2018-Feb-18 01:00N 56°12' E 012°19'5 9.8
2018-Feb-18 00:29N 56°15' E 012°11'46 9.1
2018-Feb-17 19:28N 56°58' E 011°44'4 9.1
2018-Feb-17 19:00N 57°02' E 011°42'4 8.8
2018-Feb-17 18:30N 57°06' E 011°39'5 9.5
2018-Feb-17 18:00N 57°11' E 011°36'5 9.5
2018-Feb-17 17:30N 57°15' E 011°33'5 9.1
2018-Feb-17 17:00N 57°19' E 011°30'4 8.6
2018-Feb-17 16:30N 57°23' E 011°27'4 8.6
2018-Feb-17 16:00N 57°27' E 011°24'4 8.5
2018-Feb-17 15:30N 57°31' E 011°19'4 8.3
2018-Feb-17 15:00N 57°33' E 011°13'4 8.1
2018-Feb-17 14:30N 57°36' E 011°07'4 8.4
2018-Feb-17 14:00N 57°39' E 011°02'5 9.4
2018-Feb-17 13:30N 57°42' E 010°55'5 9.6
2018-Feb-17 13:00N 57°45' E 010°48'5 9.5
2018-Feb-17 12:30N 57°47' E 010°40'510.8
2018-Feb-17 12:00N 57°46' E 010°30'30510.0
2018-Feb-16 05:36N 53°55' E 004°35'110.6
2018-Feb-16 05:29N 53°54' E 004°34'510.7
2018-Feb-16 05:00N 53°50' E 004°28'510.7
2018-Feb-16 04:30N 53°46' E 004°21'510.8
2018-Feb-16 03:59N 53°43' E 004°14'95 8.6
2018-Feb-15 16:54N 52°15' E 003°14'5 9.9
2018-Feb-15 16:22N 52°12' E 003°21'4 9.8
2018-Feb-15 16:00N 52°11' E 003°27'5 9.8
2018-Feb-15 15:30N 52°08' E 003°34'5 9.9
2018-Feb-15 14:59N 52°05' E 003°40'510.4
2018-Feb-15 14:30N 52°00' E 003°44'4 7.5
2018-Feb-15 14:00N 51°57' E 003°47'0 0.2
2018-Feb-15 13:27N 51°57' E 003°47'0 0.0
2018-Feb-15 12:57N 51°57' E 003°47'0 0.1
2018-Feb-15 12:30N 51°57' E 003°47'0 0.0
2018-Feb-15 11:57N 51°57' E 003°47'0 0.0
2018-Feb-15 11:24N 51°57' E 003°47'0 0.0
2018-Feb-15 10:57N 51°57' E 003°47'0 0.0
2018-Feb-15 10:27N 51°57' E 003°47'0 0.1
2018-Feb-15 09:57N 51°57' E 003°47'0 0.2
2018-Feb-15 09:27N 51°57' E 003°46'0 0.0
2018-Feb-15 08:54N 51°57' E 003°46'0 0.0
2018-Feb-15 08:24N 51°57' E 003°46'0 0.0
2018-Feb-15 07:54N 51°57' E 003°46'0 0.1
2018-Feb-15 07:21N 51°57' E 003°47'0 0.1
2018-Feb-15 07:00N 51°57' E 003°47'0 0.0
2018-Feb-15 06:21N 51°57' E 003°47'0 0.0
2018-Feb-15 05:51N 51°57' E 003°47'0 0.0
2018-Feb-15 05:27N 51°57' E 003°47'0 0.0
2018-Feb-15 04:57N 51°57' E 003°47'0 0.0
2018-Feb-15 04:30N 51°57' E 003°47'0 0.0
2018-Feb-15 04:00N 51°57' E 003°47'0 0.0
2018-Feb-15 03:30N 51°57' E 003°47'0 0.0
2018-Feb-15 03:00N 51°57' E 003°47'0 0.0
2018-Feb-15 02:30N 51°57' E 003°47'0 0.0
2018-Feb-15 02:00N 51°57' E 003°47'0 0.0
2018-Feb-15 01:30N 51°57' E 003°47'0 0.0
2018-Feb-15 01:00N 51°57' E 003°47'0 0.0
2018-Feb-15 00:24N 51°57' E 003°47'0 0.1
2018-Feb-14 23:57N 51°57' E 003°47'0 0.0
2018-Feb-14 23:30N 51°57' E 003°47'0 0.0
2018-Feb-14 22:51N 51°57' E 003°46'0 0.0
2018-Feb-14 22:30N 51°57' E 003°46'0 0.0
2018-Feb-14 21:51N 51°57' E 003°46'0 0.0
2018-Feb-14 21:24N 51°57' E 003°46'0 0.1
2018-Feb-14 20:57N 51°57' E 003°46'0 0.0
2018-Feb-14 20:24N 51°57' E 003°46'0 0.0
2018-Feb-14 20:00N 51°57' E 003°46'0 0.0
2018-Feb-14 19:30N 51°57' E 003°46'0 0.0
2018-Feb-14 19:00N 51°57' E 003°46'0 0.0
2018-Feb-14 17:48N 51°57' E 003°46'0 0.0
2018-Feb-14 17:27N 51°57' E 003°46'0 0.0
2018-Feb-14 16:54N 51°57' E 003°46'0 0.0
2018-Feb-14 16:30N 51°57' E 003°46'0 0.0
2018-Feb-14 15:57N 51°57' E 003°47'0 0.0
2018-Feb-14 15:30N 51°57' E 003°47'0 0.0
2018-Feb-14 14:57N 51°57' E 003°47'0 0.0
2018-Feb-14 14:15N 51°57' E 003°47'0 0.0
2018-Feb-14 13:54N 51°57' E 003°47'0 0.0
2018-Feb-14 13:21N 51°57' E 003°47'0 0.0
2018-Feb-14 12:57N 51°57' E 003°47'0 0.0
2018-Feb-14 12:21N 51°57' E 003°47'0 0.0
2018-Feb-14 12:00N 51°57' E 003°47'0 0.1
2018-Feb-14 11:30N 51°57' E 003°47'0 0.0
2018-Feb-14 10:45N 51°57' E 003°46'0 0.0
2018-Feb-14 10:18N 51°57' E 003°46'0 0.1
2018-Feb-14 09:51N 51°57' E 003°46'0 0.1
2018-Feb-14 09:30N 51°57' E 003°46'0 0.1
2018-Feb-14 09:00N 51°57' E 003°46'0 0.0
2018-Feb-14 08:21N 51°57' E 003°46'0 0.0
2018-Feb-14 07:57N 51°57' E 003°46'0 0.0
2018-Feb-14 07:30N 51°57' E 003°46'0 0.1
2018-Feb-14 06:48N 51°57' E 003°46'0 0.1
2018-Feb-14 06:30N 51°57' E 003°46'0 0.1
2018-Feb-14 06:00N 51°57' E 003°46'0 0.0
2018-Feb-14 05:24N 51°57' E 003°46'0 0.0
2018-Feb-14 04:57N 51°57' E 003°46'0 0.0
2018-Feb-14 04:30N 51°57' E 003°46'0 0.0
2018-Feb-14 03:54N 51°57' E 003°46'0 0.0
2018-Feb-14 03:24N 51°57' E 003°47'0 0.0
2018-Feb-14 03:00N 51°57' E 003°47'0 0.0
2018-Feb-14 02:30N 51°57' E 003°47'0 0.0
2018-Feb-14 01:57N 51°57' E 003°47'0 0.0
2018-Feb-14 01:18N 51°57' E 003°47'0 0.0
2018-Feb-14 00:45N 51°57' E 003°47'0 0.1
2018-Feb-14 00:30N 51°57' E 003°47'0 0.0
2018-Feb-13 23:57N 51°57' E 003°47'0 0.1
2018-Feb-13 23:21N 51°57' E 003°46'0 0.0
2018-Feb-13 22:06N 51°57' E 003°46'0 0.2
2018-Feb-13 21:51N 51°57' E 003°46'0 0.1
2018-Feb-13 21:12N 51°57' E 003°46'0 0.0
2018-Feb-13 20:57N 51°57' E 003°46'0 0.1
2018-Feb-13 20:21N 51°57' E 003°46'0 0.0
2018-Feb-13 19:57N 51°57' E 003°46'0 0.0
2018-Feb-13 19:30N 51°57' E 003°46'0 0.1
2018-Feb-13 18:57N 51°57' E 003°46'0 0.1
2018-Feb-13 18:30N 51°57' E 003°46'0 0.1
2018-Feb-13 17:15N 51°57' E 003°46'0 0.1
2018-Feb-13 17:00N 51°57' E 003°46'0 0.0
2018-Feb-13 16:30N 51°57' E 003°47'0 0.0
2018-Feb-13 15:57N 51°57' E 003°47'0 0.0
2018-Feb-13 15:27N 51°57' E 003°47'0 0.0
2018-Feb-13 14:57N 51°57' E 003°47'0 0.0
2018-Feb-13 14:30N 51°57' E 003°47'0 0.0
2018-Feb-13 13:51N 51°57' E 003°47'0 0.0
2018-Feb-13 13:30N 51°57' E 003°47'0 0.0
2018-Feb-13 12:54N 51°57' E 003°47'0 0.0
2018-Feb-13 12:15N 51°57' E 003°47'0 0.0
2018-Feb-13 11:51N 51°57' E 003°47'0 0.0
2018-Feb-13 11:21N 51°57' E 003°47'0 0.0
2018-Feb-13 10:57N 51°57' E 003°47'0 0.0
2018-Feb-13 10:24N 51°57' E 003°47'0 0.1
2018-Feb-13 09:57N 51°57' E 003°47'0 0.0
2018-Feb-13 09:18N 51°57' E 003°47'0 0.1
2018-Feb-13 08:54N 51°57' E 003°46'0 0.0
2018-Feb-13 08:24N 51°57' E 003°46'0 0.1
2018-Feb-13 07:57N 51°57' E 003°46'0 0.1
2018-Feb-13 07:24N 51°57' E 003°46'0 0.0
2018-Feb-13 06:45N 51°57' E 003°46'0 0.1
2018-Feb-13 06:30N 51°57' E 003°46'0 0.1
2018-Feb-13 06:00N 51°57' E 003°47'0 0.0
2018-Feb-13 05:30N 51°57' E 003°47'0 0.0
2018-Feb-13 05:00N 51°57' E 003°47'0 0.0
2018-Feb-13 04:24N 51°57' E 003°47'0 0.0
2018-Feb-13 04:00N 51°57' E 003°47'0 0.0
2018-Feb-13 03:30N 51°57' E 003°47'0 0.0
2018-Feb-13 02:57N 51°57' E 003°47'0 0.1
2018-Feb-13 02:27N 51°57' E 003°47'0 0.1
2018-Feb-13 02:00N 51°57' E 003°47'0 0.0
2018-Feb-13 01:30N 51°57' E 003°47'0 0.0
2018-Feb-13 00:54N 51°57' E 003°47'  

Dump ship's entire track history